Time;durP1;ratioP1;P1;durP2;ratioP2;P2;SDS_P1;SDS_P2;PMS_P1;PMS_P2;Temp;Humidity;BMP_temperature;BMP_pressure;BME280_temperature;BME280_humidity;BME280_pressure;Samples;Min_cycle;Max_cycle;Signal;HPM_P1;HPM_P2
2021/07/18 00:01:41;;;;;;;12.63;6.38;;;;;;;;;;5025028;28;20174;-71
2021/07/18 00:04:07;;;;;;;11.57;6.20;;;;;;;;;;5014798;28;20269;-72
2021/07/18 00:06:33;;;;;;;13.30;6.10;;;;;;;;;;5021739;28;20199;-71
2021/07/18 00:08:58;;;;;;;13.27;6.35;;;;;;;;;;5000277;28;20203;-71
2021/07/18 00:11:23;;;;;;;11.50;6.88;;;;;;;;;;5031935;28;20669;-72
2021/07/18 00:13:49;;;;;;;14.00;8.02;;;;;;;;;;5004806;28;20182;-72
2021/07/18 00:16:14;;;;;;;14.95;7.07;;;;;;;;;;5028438;28;20304;-71
2021/07/18 00:18:40;;;;;;;15.93;8.13;;;;;;;;;;5019248;28;20240;-71
2021/07/18 00:21:05;;;;;;;15.85;8.38;;;;;;;;;;5023564;28;20186;-72
2021/07/18 00:23:30;;;;;;;11.88;7.72;;;;;;;;;;5020418;28;20221;-72
2021/07/18 00:25:56;;;;;;;14.77;7.30;;;;;;;;;;5030385;28;20274;-72
2021/07/18 00:28:21;;;;;;;10.10;6.88;;;;;;;;;;5021622;28;20646;-72
2021/07/18 00:30:46;;;;;;;11.63;7.30;;;;;;;;;;5014473;28;20182;-72
2021/07/18 00:33:12;;;;;;;12.88;7.78;;;;;;;;;;5025777;28;20187;-72
2021/07/18 00:35:37;;;;;;;15.68;7.00;;;;;;;;;;5022782;28;20189;-72
2021/07/18 00:38:03;;;;;;;14.40;7.30;;;;;;;;;;5011627;28;20194;-72
2021/07/18 00:40:28;;;;;;;12.32;6.75;;;;;;;;;;5013105;28;21201;-71
2021/07/18 00:42:53;;;;;;;13.35;6.88;;;;;;;;;;5027606;28;20202;-71
2021/07/18 00:45:19;;;;;;;13.20;7.18;;;;;;;;;;5018947;28;20190;-72
2021/07/18 00:47:44;;;;;;;12.35;7.07;;;;;;;;;;5030864;28;20182;-72
2021/07/18 00:50:12;;;;;;;11.43;7.57;;;;;;;;;;5005900;28;20218;-71
2021/07/18 00:52:38;;;;;;;11.57;7.05;;;;;;;;;;5048292;28;20188;-71
2021/07/18 00:55:06;;;;;;;11.60;7.00;;;;;;;;;;5033757;28;20193;-71
2021/07/18 00:57:33;;;;;;;10.57;7.00;;;;;;;;;;5050292;28;20213;-71
2021/07/18 01:00:08;;;;;;;12.50;7.15;;;;;;;;;;5038877;28;20201;-71
2021/07/18 01:02:34;;;;;;;10.38;6.75;;;;;;;;;;5047476;28;20228;-71
2021/07/18 01:05:00;;;;;;;16.30;7.07;;;;;;;;;;5049459;28;20193;-71
2021/07/18 01:07:26;;;;;;;11.45;6.80;;;;;;;;;;5039496;28;20632;-71
2021/07/18 01:09:52;;;;;;;13.27;6.75;;;;;;;;;;5052323;28;20651;-71
2021/07/18 01:12:17;;;;;;;13.20;7.35;;;;;;;;;;5044235;28;20209;-71
2021/07/18 01:14:44;;;;;;;12.60;7.45;;;;;;;;;;5051169;28;20582;-71
2021/07/18 01:17:09;;;;;;;16.45;7.85;;;;;;;;;;5040812;28;20759;-71
2021/07/18 01:19:34;;;;;;;15.65;7.38;;;;;;;;;;5049469;28;20197;-72
2021/07/18 01:22:01;;;;;;;15.57;7.85;;;;;;;;;;5033064;28;20210;-72
2021/07/18 01:24:28;;;;;;;14.30;7.60;;;;;;;;;;5044354;28;20532;-71
2021/07/18 01:26:54;;;;;;;15.68;8.18;;;;;;;;;;5037321;28;20699;-72
2021/07/18 01:29:20;;;;;;;15.65;8.25;;;;;;;;;;5047702;28;21370;-72
2021/07/18 01:31:45;;;;;;;14.57;8.48;;;;;;;;;;5033331;28;20192;-71
2021/07/18 01:34:11;;;;;;;10.50;7.82;;;;;;;;;;5046560;28;20243;-71
2021/07/18 01:36:36;;;;;;;15.75;8.15;;;;;;;;;;5047090;28;20192;-71
2021/07/18 01:39:06;;;;;;;16.38;8.93;;;;;;;;;;5039216;28;20185;-71
2021/07/18 01:41:32;;;;;;;17.05;9.60;;;;;;;;;;5045162;28;20294;-71
2021/07/18 01:43:57;;;;;;;15.60;9.02;;;;;;;;;;5033912;28;20285;-71
2021/07/18 01:46:23;;;;;;;17.83;10.07;;;;;;;;;;5045575;28;20714;-71
2021/07/18 01:48:52;;;;;;;18.10;8.85;;;;;;;;;;5036393;28;20213;-71
2021/07/18 01:51:25;;;;;;;13.52;9.43;;;;;;;;;;5031206;28;20613;-72
2021/07/18 01:53:57;;;;;;;14.38;9.35;;;;;;;;;;5011256;28;20638;-71
2021/07/18 01:56:23;;;;;;;18.30;10.07;;;;;;;;;;5024774;28;20191;-71
2021/07/18 01:58:50;;;;;;;19.00;10.35;;;;;;;;;;5017255;28;20198;-71
2021/07/18 02:01:23;;;;;;;18.35;10.68;;;;;;;;;;5026908;28;20714;-71
2021/07/18 02:03:48;;;;;;;21.02;10.60;;;;;;;;;;5018174;28;20260;-71
2021/07/18 02:06:14;;;;;;;18.33;10.45;;;;;;;;;;5026797;28;20174;-71
2021/07/18 02:08:39;;;;;;;21.45;10.82;;;;;;;;;;5017524;28;20240;-72
2021/07/18 02:11:05;;;;;;;23.25;10.30;;;;;;;;;;5024805;28;20273;-71
2021/07/18 02:13:30;;;;;;;16.90;10.85;;;;;;;;;;5021751;28;20179;-71
2021/07/18 02:16:00;;;;;;;20.70;10.60;;;;;;;;;;5016834;28;20201;-72
2021/07/18 02:18:25;;;;;;;22.10;11.43;;;;;;;;;;5019462;28;20376;-71
2021/07/18 02:20:52;;;;;;;17.05;10.95;;;;;;;;;;5015871;28;20680;-71
2021/07/18 02:23:18;;;;;;;20.48;11.35;;;;;;;;;;5020549;28;20206;-71
2021/07/18 02:25:43;;;;;;;18.95;11.57;;;;;;;;;;5013296;28;20565;-71
2021/07/18 02:28:09;;;;;;;19.02;11.13;;;;;;;;;;5008163;28;20592;-71
2021/07/18 02:30:34;;;;;;;21.50;11.15;;;;;;;;;;5009099;28;20183;-71
2021/07/18 02:32:59;;;;;;;22.02;11.57;;;;;;;;;;5021253;28;20276;-71
2021/07/18 02:35:25;;;;;;;26.15;11.45;;;;;;;;;;5000624;28;20206;-71
2021/07/18 02:37:51;;;;;;;19.58;11.98;;;;;;;;;;5025042;28;20182;-71
2021/07/18 02:40:18;;;;;;;19.00;11.50;;;;;;;;;;5015748;28;20194;-71
2021/07/18 02:42:45;;;;;;;20.77;11.65;;;;;;;;;;5017901;28;20206;-72
2021/07/18 02:45:12;;;;;;;22.67;12.02;;;;;;;;;;5021406;28;20324;-71
2021/07/18 02:47:38;;;;;;;21.48;12.77;;;;;;;;;;5019660;28;20192;-71
2021/07/18 02:50:08;;;;;;;23.25;13.18;;;;;;;;;;5024355;28;20305;-71
2021/07/18 02:52:33;;;;;;;25.10;13.43;;;;;;;;;;5014500;28;20539;-72
2021/07/18 02:54:59;;;;;;;23.60;13.40;;;;;;;;;;5027738;28;20208;-71
2021/07/18 02:57:24;;;;;;;26.95;12.98;;;;;;;;;;5015476;28;20663;-71
2021/07/18 02:59:50;;;;;;;33.35;14.20;;;;;;;;;;5025224;28;20229;-71
2021/07/18 03:02:16;;;;;;;25.58;14.02;;;;;;;;;;5015382;28;20217;-71
2021/07/18 03:04:41;;;;;;;27.08;13.65;;;;;;;;;;5025449;28;20204;-72
2021/07/18 03:07:06;;;;;;;22.42;14.00;;;;;;;;;;5015316;28;20197;-71
2021/07/18 03:09:32;;;;;;;27.02;13.98;;;;;;;;;;5026830;28;20186;-71
2021/07/18 03:11:57;;;;;;;27.92;13.50;;;;;;;;;;4999518;28;20185;-74
2021/07/18 03:14:22;;;;;;;25.38;13.80;;;;;;;;;;5025893;28;20182;-71
2021/07/18 03:16:48;;;;;;;27.00;14.25;;;;;;;;;;5018972;28;20652;-72
2021/07/18 03:19:14;;;;;;;23.58;13.60;;;;;;;;;;5022656;28;20182;-71
2021/07/18 03:21:40;;;;;;;23.15;13.82;;;;;;;;;;5025306;28;20232;-71
2021/07/18 03:24:05;;;;;;;24.27;14.13;;;;;;;;;;5010615;28;20226;-71
2021/07/18 03:26:31;;;;;;;24.60;14.70;;;;;;;;;;5025063;28;20190;-72
2021/07/18 03:28:56;;;;;;;23.48;13.77;;;;;;;;;;5016130;28;20199;-71
2021/07/18 03:31:22;;;;;;;27.48;14.15;;;;;;;;;;5020542;28;20603;-71
2021/07/18 03:33:47;;;;;;;22.80;14.25;;;;;;;;;;5015966;28;20236;-71
2021/07/18 03:36:13;;;;;;;23.80;14.00;;;;;;;;;;5022956;28;20185;-71
2021/07/18 03:38:39;;;;;;;20.67;13.25;;;;;;;;;;5011603;28;20190;-71
2021/07/18 03:41:04;;;;;;;28.08;13.82;;;;;;;;;;5001766;28;20277;-71
2021/07/18 03:43:30;;;;;;;26.55;13.95;;;;;;;;;;4997525;28;20271;-71
2021/07/18 03:45:55;;;;;;;23.60;13.50;;;;;;;;;;5020735;28;20189;-71
2021/07/18 03:48:21;;;;;;;23.50;13.35;;;;;;;;;;5024755;28;20265;-71
2021/07/18 03:50:47;;;;;;;20.65;12.70;;;;;;;;;;5013784;28;20295;-71
2021/07/18 03:53:12;;;;;;;22.70;13.82;;;;;;;;;;5016041;28;20477;-71
2021/07/18 03:55:38;;;;;;;23.70;13.70;;;;;;;;;;5014204;28;20182;-71
2021/07/18 03:58:03;;;;;;;22.23;12.95;;;;;;;;;;5026054;28;20182;-71
2021/07/18 04:00:29;;;;;;;21.00;12.82;;;;;;;;;;5012178;28;20225;-71
2021/07/18 04:02:54;;;;;;;19.63;13.65;;;;;;;;;;5025776;28;20198;-71
2021/07/18 04:05:20;;;;;;;24.05;13.23;;;;;;;;;;5014361;28;20212;-71
2021/07/18 04:07:45;;;;;;;20.45;13.20;;;;;;;;;;5017840;28;20202;-71
2021/07/18 04:10:10;;;;;;;24.52;14.75;;;;;;;;;;5010523;28;20185;-71
2021/07/18 04:12:36;;;;;;;19.67;13.20;;;;;;;;;;5026696;28;20185;-71
2021/07/18 04:15:02;;;;;;;24.27;14.35;;;;;;;;;;5013441;28;20185;-71
2021/07/18 04:17:27;;;;;;;20.05;13.65;;;;;;;;;;5024664;28;20186;-71
2021/07/18 04:19:53;;;;;;;21.25;13.65;;;;;;;;;;5021575;28;20534;-71
2021/07/18 04:22:18;;;;;;;23.33;14.13;;;;;;;;;;5014503;28;20228;-71
2021/07/18 04:24:43;;;;;;;19.83;13.63;;;;;;;;;;5018386;28;20292;-71
2021/07/18 04:27:10;;;;;;;19.02;12.82;;;;;;;;;;5016720;28;20553;-71
2021/07/18 04:29:35;;;;;;;27.88;14.27;;;;;;;;;;5021231;28;20198;-71
2021/07/18 04:32:00;;;;;;;21.75;13.88;;;;;;;;;;5014831;28;20192;-71
2021/07/18 04:34:26;;;;;;;26.25;15.52;;;;;;;;;;5020956;28;20533;-71
2021/07/18 04:36:51;;;;;;;21.02;14.48;;;;;;;;;;5014025;28;20199;-71
2021/07/18 04:39:16;;;;;;;18.00;13.38;;;;;;;;;;5021177;28;20182;-71
2021/07/18 04:41:42;;;;;;;20.02;14.25;;;;;;;;;;5009974;28;20339;-72
2021/07/18 04:44:08;;;;;;;25.95;14.68;;;;;;;;;;5019735;28;20308;-71
2021/07/18 04:46:33;;;;;;;21.20;13.32;;;;;;;;;;5015797;28;20182;-71
2021/07/18 04:48:58;;;;;;;24.63;14.30;;;;;;;;;;5019737;28;20243;-71
2021/07/18 04:51:24;;;;;;;23.73;14.10;;;;;;;;;;5025466;28;20236;-71
2021/07/18 04:53:49;;;;;;;21.67;13.93;;;;;;;;;;5013833;28;20254;-72
2021/07/18 04:56:15;;;;;;;32.70;15.15;;;;;;;;;;5025427;28;20244;-71
2021/07/18 04:58:41;;;;;;;22.10;13.90;;;;;;;;;;5018848;28;20235;-71
2021/07/18 05:01:07;;;;;;;30.98;13.43;;;;;;;;;;5027012;28;20655;-71
2021/07/18 05:03:33;;;;;;;21.98;13.50;;;;;;;;;;5017386;28;20276;-71
2021/07/18 05:05:59;;;;;;;42.22;12.77;;;;;;;;;;5012026;28;20210;-71
2021/07/18 05:08:24;;;;;;;29.20;12.43;;;;;;;;;;5017047;28;20617;-71
2021/07/18 05:10:50;;;;;;;40.15;12.73;;;;;;;;;;5010360;28;20178;-71
2021/07/18 05:13:15;;;;;;;26.35;12.07;;;;;;;;;;4998841;28;20194;-71
2021/07/18 05:15:40;;;;;;;25.73;11.85;;;;;;;;;;5025951;28;20182;-71
2021/07/18 05:18:10;;;;;;;17.38;11.73;;;;;;;;;;4999393;28;20193;-71
2021/07/18 05:20:37;;;;;;;21.63;11.55;;;;;;;;;;5020837;28;20634;-71
2021/07/18 05:23:02;;;;;;;16.55;10.82;;;;;;;;;;5023542;28;20210;-71
2021/07/18 05:25:27;;;;;;;21.60;10.43;;;;;;;;;;5018473;28;20186;-71
2021/07/18 05:27:53;;;;;;;15.07;10.50;;;;;;;;;;5026240;28;20506;-71
2021/07/18 05:30:18;;;;;;;15.30;10.10;;;;;;;;;;5007853;28;20201;-72
2021/07/18 05:32:43;;;;;;;19.42;10.50;;;;;;;;;;5025061;28;20529;-71
2021/07/18 05:35:10;;;;;;;12.32;9.40;;;;;;;;;;5017945;28;20217;-71
2021/07/18 05:37:36;;;;;;;17.88;10.60;;;;;;;;;;5024665;28;20190;-71
2021/07/18 05:40:07;;;;;;;14.25;9.90;;;;;;;;;;5020367;28;20186;-71
2021/07/18 05:42:33;;;;;;;15.35;10.68;;;;;;;;;;5023215;28;20214;-71
2021/07/18 05:44:59;;;;;;;12.85;9.43;;;;;;;;;;5017051;28;20225;-71
2021/07/18 05:47:25;;;;;;;14.25;10.45;;;;;;;;;;5021240;28;20198;-72
2021/07/18 05:49:52;;;;;;;14.23;10.43;;;;;;;;;;4997668;28;20213;-72
2021/07/18 05:52:17;;;;;;;13.25;9.32;;;;;;;;;;5027296;28;20629;-71
2021/07/18 05:54:43;;;;;;;15.40;10.30;;;;;;;;;;5020582;28;20826;-71
2021/07/18 05:57:08;;;;;;;12.27;9.48;;;;;;;;;;5016741;28;20270;-71
2021/07/18 05:59:33;;;;;;;12.70;8.55;;;;;;;;;;5026807;28;20274;-71
2021/07/18 06:01:59;;;;;;;11.50;8.98;;;;;;;;;;5016785;28;20722;-71
2021/07/18 06:04:25;;;;;;;12.55;9.60;;;;;;;;;;5027761;28;20243;-71
2021/07/18 06:06:51;;;;;;;14.18;9.23;;;;;;;;;;5014898;28;20280;-71
2021/07/18 06:09:17;;;;;;;12.10;8.95;;;;;;;;;;5027689;28;20273;-71
2021/07/18 06:11:42;;;;;;;10.88;8.60;;;;;;;;;;5015891;28;20201;-70
2021/07/18 06:14:07;;;;;;;16.05;8.73;;;;;;;;;;5026155;28;20265;-71
2021/07/18 06:16:32;;;;;;;13.45;9.05;;;;;;;;;;5016068;28;20640;-71
2021/07/18 06:18:58;;;;;;;11.10;7.85;;;;;;;;;;5026154;28;20189;-71
2021/07/18 06:21:23;;;;;;;9.98;7.55;;;;;;;;;;5015040;28;21037;-71
2021/07/18 06:23:49;;;;;;;10.85;7.22;;;;;;;;;;5023767;28;20304;-71
2021/07/18 06:26:15;;;;;;;8.65;7.22;;;;;;;;;;5022187;28;20532;-71
2021/07/18 06:28:40;;;;;;;8.88;7.18;;;;;;;;;;5017900;28;20198;-71
2021/07/18 06:31:06;;;;;;;9.40;6.78;;;;;;;;;;5022753;28;20236;-71
2021/07/18 06:33:31;;;;;;;10.55;7.38;;;;;;;;;;5013510;28;20759;-71
2021/07/18 06:35:57;;;;;;;9.00;7.25;;;;;;;;;;5022739;28;20539;-71
2021/07/18 06:38:22;;;;;;;9.52;7.32;;;;;;;;;;5008699;28;20213;-70
2021/07/18 06:40:47;;;;;;;8.82;6.95;;;;;;;;;;5025623;28;20664;-71
2021/07/18 06:43:13;;;;;;;9.85;7.38;;;;;;;;;;5013714;28;20563;-71
2021/07/18 06:45:38;;;;;;;8.75;6.68;;;;;;;;;;5023905;28;20205;-71
2021/07/18 06:48:04;;;;;;;8.82;5.70;;;;;;;;;;5012651;28;20654;-71
2021/07/18 06:50:29;;;;;;;10.25;7.45;;;;;;;;;;5024221;28;20619;-71
2021/07/18 06:52:54;;;;;;;10.30;6.68;;;;;;;;;;5019118;28;20182;-71
2021/07/18 06:55:20;;;;;;;8.45;6.90;;;;;;;;;;5022320;28;20197;-71
2021/07/18 06:57:50;;;;;;;9.10;6.10;;;;;;;;;;5026085;28;20187;-71
2021/07/18 07:00:17;;;;;;;8.18;6.85;;;;;;;;;;5014444;28;20355;-71
2021/07/18 07:02:43;;;;;;;9.38;6.55;;;;;;;;;;5026801;28;20225;-71
2021/07/18 07:05:09;;;;;;;8.73;6.97;;;;;;;;;;5012336;28;20186;-71
2021/07/18 07:07:34;;;;;;;9.38;6.70;;;;;;;;;;5026897;28;20194;-72
2021/07/18 07:09:59;;;;;;;8.63;6.28;;;;;;;;;;4994691;28;20190;-71
2021/07/18 07:12:25;;;;;;;9.32;6.65;;;;;;;;;;5026060;28;20201;-72
2021/07/18 07:14:50;;;;;;;9.40;6.57;;;;;;;;;;5014564;28;20194;-71
2021/07/18 07:17:16;;;;;;;8.52;6.43;;;;;;;;;;5022889;28;20186;-71
2021/07/18 07:19:41;;;;;;;9.02;6.20;;;;;;;;;;5012039;28;20182;-71
2021/07/18 07:22:08;;;;;;;6.93;5.32;;;;;;;;;;5021937;28;20198;-70
2021/07/18 07:24:33;;;;;;;8.95;5.68;;;;;;;;;;5013439;28;21041;-71
2021/07/18 07:26:58;;;;;;;6.15;5.30;;;;;;;;;;5019694;28;20584;-70
2021/07/18 07:29:24;;;;;;;8.90;5.30;;;;;;;;;;5024012;28;20568;-72
2021/07/18 07:31:49;;;;;;;9.50;5.75;;;;;;;;;;5009776;28;20518;-71
2021/07/18 07:34:15;;;;;;;6.90;4.93;;;;;;;;;;5022263;28;20301;-71
2021/07/18 07:36:40;;;;;;;9.02;4.93;;;;;;;;;;4999257;28;20304;-72
2021/07/18 07:39:05;;;;;;;8.50;4.72;;;;;;;;;;5025603;28;20182;-71
2021/07/18 07:41:31;;;;;;;6.40;3.92;;;;;;;;;;5009613;28;20192;-71
2021/07/18 07:43:57;;;;;;;6.05;3.40;;;;;;;;;;5026218;28;20202;-71
2021/07/18 07:46:24;;;;;;;4.63;3.63;;;;;;;;;;5016638;28;20608;-70
2021/07/18 07:48:50;;;;;;;7.22;4.43;;;;;;;;;;5023128;28;20232;-71
2021/07/18 07:51:15;;;;;;;5.40;3.92;;;;;;;;;;5014707;28;20708;-70
2021/07/18 07:53:40;;;;;;;4.97;3.35;;;;;;;;;;5024077;28;20265;-71
2021/07/18 07:56:06;;;;;;;7.20;4.10;;;;;;;;;;5016593;28;20269;-71
2021/07/18 07:58:31;;;;;;;5.32;3.72;;;;;;;;;;5026779;28;20570;-70
2021/07/18 08:00:57;;;;;;;5.53;3.47;;;;;;;;;;5023433;28;20198;-71
2021/07/18 08:03:22;;;;;;;4.25;3.50;;;;;;;;;;5015112;28;20214;-71
2021/07/18 08:05:48;;;;;;;6.28;3.65;;;;;;;;;;5025421;28;20189;-71
2021/07/18 08:08:14;;;;;;;3.95;3.35;;;;;;;;;;4999834;28;20217;-71
2021/07/18 08:10:39;;;;;;;9.60;3.42;;;;;;;;;;5024043;28;20507;-70
2021/07/18 08:13:05;;;;;;;5.57;2.85;;;;;;;;;;5014980;28;20174;-71
2021/07/18 08:15:30;;;;;;;5.32;3.25;;;;;;;;;;5006914;28;20186;-71
2021/07/18 08:17:56;;;;;;;5.47;3.33;;;;;;;;;;5013075;28;20202;-72
2021/07/18 08:20:24;;;;;;;5.82;3.90;;;;;;;;;;5022572;28;20192;-71
2021/07/18 08:22:51;;;;;;;4.38;3.90;;;;;;;;;;5015515;28;20269;-70
2021/07/18 08:25:17;;;;;;;5.90;3.70;;;;;;;;;;5016872;28;20666;-71
2021/07/18 08:27:42;;;;;;;5.68;3.38;;;;;;;;;;5013236;28;20195;-71
2021/07/18 08:30:09;;;;;;;8.25;2.95;;;;;;;;;;5022026;28;20651;-73
2021/07/18 08:32:35;;;;;;;4.85;3.03;;;;;;;;;;5028931;28;20193;-72
2021/07/18 08:35:01;;;;;;;3.97;2.47;;;;;;;;;;4997387;28;20588;-71
2021/07/18 08:37:27;;;;;;;3.90;2.50;;;;;;;;;;5027600;28;20182;-70
2021/07/18 08:39:52;;;;;;;6.80;2.90;;;;;;;;;;5015710;28;20449;-70
2021/07/18 08:42:18;;;;;;;3.72;2.25;;;;;;;;;;5024087;28;20224;-70
2021/07/18 08:44:44;;;;;;;4.00;2.40;;;;;;;;;;5016092;28;20186;-71
2021/07/18 08:47:11;;;;;;;4.47;2.53;;;;;;;;;;5028723;28;20582;-73
2021/07/18 08:49:39;;;;;;;2.97;2.67;;;;;;;;;;5018835;28;20182;-70
2021/07/18 08:52:05;;;;;;;5.00;2.88;;;;;;;;;;5022982;28;20190;-70
2021/07/18 08:54:32;;;;;;;5.68;2.92;;;;;;;;;;5012228;28;20236;-71
2021/07/18 08:57:00;;;;;;;5.05;3.10;;;;;;;;;;5027195;28;20213;-71
2021/07/18 08:59:26;;;;;;;5.22;2.83;;;;;;;;;;5013330;28;20571;-71
2021/07/18 09:01:51;;;;;;;5.60;2.95;;;;;;;;;;5026981;28;20174;-69
2021/07/18 09:04:17;;;;;;;4.45;3.60;;;;;;;;;;5009107;28;20210;-70
2021/07/18 09:06:47;;;;;;;5.75;3.40;;;;;;;;;;5018352;28;20213;-71
2021/07/18 09:09:18;;;;;;;5.45;2.83;;;;;;;;;;5026118;28;20247;-71
2021/07/18 09:11:57;;;;;;;5.75;3.22;;;;;;;;;;5021440;28;20296;-71
2021/07/18 09:14:23;;;;;;;5.40;3.40;;;;;;;;;;5025243;28;20194;-71
2021/07/18 09:16:51;;;;;;;4.93;2.97;;;;;;;;;;5014715;28;20252;-71
2021/07/18 09:19:29;;;;;;;7.45;3.53;;;;;;;;;;5026449;28;20186;-72
2021/07/18 09:21:58;;;;;;;4.70;2.80;;;;;;;;;;5020124;28;20657;-71
2021/07/18 09:24:26;;;;;;;4.32;3.15;;;;;;;;;;5006640;28;20197;-70
2021/07/18 09:27:13;;;;;;;4.78;3.40;;;;;;;;;;5015678;28;20684;-71
2021/07/18 09:29:47;;;;;;;4.53;2.85;;;;;;;;;;5024688;28;20277;-71
2021/07/18 09:32:14;;;;;;;3.25;2.95;;;;;;;;;;5013106;28;20201;-71
2021/07/18 09:34:43;;;;;;;7.63;3.90;;;;;;;;;;5025896;28;20178;-71
2021/07/18 09:37:14;;;;;;;4.43;2.70;;;;;;;;;;5010804;28;20598;-71
2021/07/18 09:39:45;;;;;;;5.85;3.03;;;;;;;;;;5024290;28;20537;-72
2021/07/18 09:42:24;;;;;;;5.65;3.55;;;;;;;;;;5016870;28;20179;-70
2021/07/18 09:44:50;;;;;;;9.10;3.20;;;;;;;;;;5023342;28;20223;-71
2021/07/18 09:47:15;;;;;;;5.85;3.05;;;;;;;;;;5016470;28;20190;-74
2021/07/18 09:49:40;;;;;;;5.13;3.75;;;;;;;;;;5006519;28;20189;-71
2021/07/18 09:52:22;;;;;;;4.78;2.92;;;;;;;;;;5015700;28;20273;-71
2021/07/18 09:54:50;;;;;;;5.75;3.35;;;;;;;;;;5029032;28;20193;-71
2021/07/18 09:57:32;;;;;;;5.07;2.80;;;;;;;;;;4998913;28;20201;-71
2021/07/18 09:59:58;;;;;;;6.22;2.53;;;;;;;;;;5027119;28;20288;-73
2021/07/18 10:02:25;;;;;;;4.78;2.47;;;;;;;;;;5017550;28;20624;-72
2021/07/18 10:04:51;;;;;;;3.35;2.25;;;;;;;;;;5025132;28;20586;-75
2021/07/18 10:07:19;;;;;;;3.97;2.10;;;;;;;;;;5025363;28;20198;-73
2021/07/18 10:09:44;;;;;;;4.38;2.33;;;;;;;;;;5001057;28;20641;-74
2021/07/18 10:12:10;;;;;;;5.18;2.42;;;;;;;;;;5007534;28;20190;-71
2021/07/18 10:14:35;;;;;;;4.25;2.30;;;;;;;;;;5017194;28;20225;-71
2021/07/18 10:17:01;;;;;;;2.92;2.30;;;;;;;;;;5025798;28;20190;-71
2021/07/18 10:19:27;;;;;;;3.50;2.20;;;;;;;;;;4997165;28;20190;-75
2021/07/18 10:21:52;;;;;;;3.08;1.80;;;;;;;;;;5026067;28;20684;-71
2021/07/18 10:24:18;;;;;;;3.15;1.90;;;;;;;;;;5015059;28;20233;-71
2021/07/18 10:26:43;;;;;;;2.47;2.17;;;;;;;;;;5022867;28;20186;-71
2021/07/18 10:29:12;;;;;;;1.92;1.83;;;;;;;;;;5015512;28;20190;-74
2021/07/18 10:31:49;;;;;;;2.90;1.90;;;;;;;;;;5005951;28;20653;-71
2021/07/18 10:34:16;;;;;;;4.90;2.05;;;;;;;;;;5013756;28;20232;-71
2021/07/18 10:36:42;;;;;;;2.88;1.83;;;;;;;;;;5021106;28;20213;-71
2021/07/18 10:39:35;;;;;;;4.05;2.08;;;;;;;;;;5017320;28;20190;-71
2021/07/18 10:42:04;;;;;;;2.53;1.77;;;;;;;;;;5013038;28;20226;-71
2021/07/18 10:44:40;;;;;;;6.88;2.22;;;;;;;;;;5005362;28;20181;-70
2021/07/18 10:47:06;;;;;;;4.47;2.45;;;;;;;;;;5024003;28;20277;-73
2021/07/18 10:49:55;;;;;;;2.30;2.10;;;;;;;;;;5007746;28;20693;-72
2021/07/18 10:52:29;;;;;;;4.15;2.30;;;;;;;;;;5006639;28;20392;-71
2021/07/18 10:54:54;;;;;;;2.75;2.17;;;;;;;;;;5022661;28;20231;-70
2021/07/18 10:57:25;;;;;;;2.92;2.35;;;;;;;;;;5017741;28;20265;-71
2021/07/18 10:59:52;;;;;;;3.65;2.47;;;;;;;;;;5023713;28;20206;-70
2021/07/18 11:02:20;;;;;;;4.25;2.45;;;;;;;;;;5015598;28;20182;-70
2021/07/18 11:04:53;;;;;;;2.28;1.90;;;;;;;;;;5021587;28;20642;-72
2021/07/18 11:07:21;;;;;;;3.05;2.22;;;;;;;;;;5009174;28;20240;-73
2021/07/18 11:10:13;;;;;;;3.60;2.10;;;;;;;;;;5024338;28;20197;-70
2021/07/18 11:13:00;;;;;;;2.55;2.10;;;;;;;;;;5001567;28;20661;-70
2021/07/18 11:15:34;;;;;;;5.03;2.65;;;;;;;;;;5021125;28;20182;-71
2021/07/18 11:18:01;;;;;;;4.65;2.65;;;;;;;;;;5000213;28;20198;-70
2021/07/18 11:20:48;;;;;;;4.97;2.85;;;;;;;;;;5021264;28;20191;-71
2021/07/18 11:23:28;;;;;;;3.40;2.50;;;;;;;;;;5010993;28;20201;-71
2021/07/18 11:26:04;;;;;;;3.28;2.15;;;;;;;;;;5020772;28;20589;-71
2021/07/18 11:31:12;;;;;;;3.28;2.38;;;;;;;;;;5024608;28;20213;-70
2021/07/18 11:33:44;;;;;;;5.18;2.83;;;;;;;;;;5009765;28;20190;-71
2021/07/18 11:36:11;;;;;;;2.65;2.30;;;;;;;;;;5005883;28;20198;-71
2021/07/18 11:38:37;;;;;;;3.00;2.35;;;;;;;;;;5007722;28;20186;-71
2021/07/18 11:41:29;;;;;;;3.20;2.47;;;;;;;;;;5000842;28;20189;-71
2021/07/18 11:44:02;;;;;;;3.15;2.10;;;;;;;;;;5009657;28;20297;-71
2021/07/18 11:46:44;;;;;;;2.67;2.47;;;;;;;;;;5018971;28;20627;-71
2021/07/18 11:49:11;;;;;;;4.22;2.40;;;;;;;;;;5015240;28;20607;-72
2021/07/18 11:51:39;;;;;;;3.97;2.20;;;;;;;;;;5027836;28;20784;-71
2021/07/18 11:54:06;;;;;;;5.50;2.80;;;;;;;;;;5035734;28;20541;-71
2021/07/18 11:56:40;;;;;;;3.70;2.47;;;;;;;;;;5041859;28;20260;-72
2021/07/18 11:59:08;;;;;;;2.40;2.20;;;;;;;;;;5034978;28;20192;-71
2021/07/18 12:01:35;;;;;;;3.15;2.35;;;;;;;;;;5042415;28;20659;-72
2021/07/18 12:04:03;;;;;;;2.42;2.22;;;;;;;;;;5033768;28;20206;-70
2021/07/18 12:06:32;;;;;;;3.47;2.47;;;;;;;;;;5043821;28;20567;-71
2021/07/18 12:09:10;;;;;;;3.53;2.20;;;;;;;;;;5034273;28;20190;-71
2021/07/18 12:11:37;;;;;;;2.15;1.92;;;;;;;;;;5048083;28;20533;-71
2021/07/18 12:14:03;;;;;;;4.90;2.28;;;;;;;;;;5032644;28;20201;-71
2021/07/18 12:16:29;;;;;;;3.92;2.35;;;;;;;;;;5047461;28;20196;-71
2021/07/18 12:18:55;;;;;;;4.45;2.20;;;;;;;;;;5040692;28;20555;-70
2021/07/18 12:21:24;;;;;;;3.83;3.10;;;;;;;;;;5038716;28;20190;-70
2021/07/18 12:24:13;;;;;;;2.88;2.30;;;;;;;;;;5042085;28;20213;-71
2021/07/18 12:26:39;;;;;;;3.00;2.28;;;;;;;;;;5037746;28;20212;-72
2021/07/18 12:29:07;;;;;;;4.60;2.08;;;;;;;;;;5041866;28;20599;-71
2021/07/18 12:31:32;;;;;;;2.50;2.28;;;;;;;;;;5033886;28;20208;-71
2021/07/18 12:33:58;;;;;;;3.20;2.25;;;;;;;;;;5043845;28;20636;-68
2021/07/18 12:36:23;;;;;;;2.10;1.90;;;;;;;;;;5032268;28;20243;-69
2021/07/18 12:38:49;;;;;;;4.80;2.50;;;;;;;;;;5040150;28;20186;-70
2021/07/18 12:41:14;;;;;;;2.85;2.60;;;;;;;;;;5034924;28;20216;-69
2021/07/18 12:43:40;;;;;;;5.00;2.40;;;;;;;;;;5044674;28;20229;-69
2021/07/18 12:46:08;;;;;;;2.78;2.30;;;;;;;;;;5035360;28;20191;-69
2021/07/18 12:48:34;;;;;;;2.10;1.80;;;;;;;;;;5041186;28;20173;-68
2021/07/18 12:51:12;;;;;;;2.90;2.40;;;;;;;;;;5042298;28;20700;-68
2021/07/18 12:53:38;;;;;;;3.20;2.35;;;;;;;;;;5043381;28;20252;-69
2021/07/18 12:56:03;;;;;;;3.25;2.20;;;;;;;;;;5036488;28;20292;-69
2021/07/18 12:58:34;;;;;;;2.40;2.17;;;;;;;;;;5043237;28;20606;-69
2021/07/18 13:01:11;;;;;;;2.83;2.28;;;;;;;;;;5037064;28;20201;-69
2021/07/18 13:03:39;;;;;;;3.85;2.22;;;;;;;;;;5045915;28;20216;-69
2021/07/18 13:06:18;;;;;;;2.85;2.53;;;;;;;;;;5042604;28;20190;-73
2021/07/18 13:08:46;;;;;;;2.53;2.15;;;;;;;;;;5038748;28;20182;-69
2021/07/18 13:11:30;;;;;;;4.40;2.30;;;;;;;;;;5040884;28;20185;-71
2021/07/18 13:13:55;;;;;;;2.20;2.00;;;;;;;;;;5042499;28;20208;-69
2021/07/18 13:16:35;;;;;;;2.53;2.33;;;;;;;;;;5045058;28;20230;-69
2021/07/18 13:19:14;;;;;;;4.78;2.08;;;;;;;;;;5030014;28;20609;-73
2021/07/18 13:21:40;;;;;;;6.57;2.70;;;;;;;;;;5043089;28;20200;-69
2021/07/18 13:24:07;;;;;;;2.58;2.38;;;;;;;;;;5033302;28;20210;-69
2021/07/18 13:26:40;;;;;;;2.72;2.38;;;;;;;;;;5047777;28;20652;-69
2021/07/18 13:29:20;;;;;;;2.97;2.10;;;;;;;;;;5036746;28;20200;-69
2021/07/18 13:31:50;;;;;;;4.03;2.72;;;;;;;;;;5046003;28;20277;-69
2021/07/18 13:34:19;;;;;;;3.33;2.25;;;;;;;;;;5028992;28;20628;-69
2021/07/18 13:36:45;;;;;;;2.70;2.50;;;;;;;;;;5046049;28;20561;-69
2021/07/18 13:39:15;;;;;;;4.47;3.28;;;;;;;;;;5039374;28;20272;-69
2021/07/18 13:42:10;;;;;;;2.88;2.40;;;;;;;;;;5041748;28;20199;-70
2021/07/18 13:44:38;;;;;;;4.18;2.50;;;;;;;;;;5035843;28;20637;-70
2021/07/18 13:47:04;;;;;;;2.72;2.30;;;;;;;;;;5047518;28;20600;-71
2021/07/18 13:49:30;;;;;;;4.60;2.45;;;;;;;;;;5038348;28;20193;-71
2021/07/18 13:51:57;;;;;;;3.80;2.08;;;;;;;;;;5048110;28;20225;-70
2021/07/18 13:54:23;;;;;;;3.60;2.40;;;;;;;;;;5038463;28;20231;-69
2021/07/18 13:56:49;;;;;;;2.58;2.38;;;;;;;;;;5044873;28;20209;-68
2021/07/18 13:59:14;;;;;;;3.33;2.80;;;;;;;;;;5035746;28;20221;-69
2021/07/18 14:01:40;;;;;;;2.55;2.33;;;;;;;;;;5047677;28;20560;-69
2021/07/18 14:04:05;;;;;;;3.22;2.38;;;;;;;;;;5048028;28;20205;-70
2021/07/18 14:06:30;;;;;;;3.30;2.08;;;;;;;;;;5038032;28;20185;-68
2021/07/18 14:08:56;;;;;;;2.78;2.50;;;;;;;;;;5047315;28;20246;-69
2021/07/18 14:11:21;;;;;;;4.75;2.25;;;;;;;;;;5034278;28;20185;-68
2021/07/18 14:13:47;;;;;;;4.90;2.17;;;;;;;;;;5045130;28;20189;-69
2021/07/18 14:16:12;;;;;;;3.13;2.80;;;;;;;;;;5035468;28;20615;-71
2021/07/18 14:18:37;;;;;;;4.05;2.60;;;;;;;;;;5049913;28;20217;-69
2021/07/18 14:21:04;;;;;;;3.90;2.50;;;;;;;;;;5034053;28;20204;-69
2021/07/18 14:23:30;;;;;;;3.35;2.38;;;;;;;;;;5046349;28;20276;-70
2021/07/18 14:25:56;;;;;;;3.42;2.40;;;;;;;;;;5034122;28;20247;-69
2021/07/18 14:28:21;;;;;;;2.72;2.30;;;;;;;;;;5044061;28;20645;-69
2021/07/18 14:30:47;;;;;;;4.15;2.30;;;;;;;;;;5030519;28;20528;-69
2021/07/18 14:33:14;;;;;;;6.85;2.40;;;;;;;;;;5046572;28;20185;-72
2021/07/18 14:35:40;;;;;;;6.13;2.58;;;;;;;;;;5040400;28;20190;-68
2021/07/18 14:38:06;;;;;;;4.35;2.70;;;;;;;;;;5033931;28;20201;-69